createdAt,value
2018-05-07T00:00:37.894Z,0
2018-05-07T00:01:18.379Z,0
2018-05-07T00:01:58.869Z,0
2018-05-07T00:02:39.369Z,0
2018-05-07T00:03:19.880Z,0
2018-05-07T00:04:00.355Z,0
2018-05-07T00:04:40.881Z,0
2018-05-07T00:05:21.370Z,0
2018-05-07T00:06:02.614Z,0
2018-05-07T00:06:43.022Z,0
2018-05-07T00:07:25.819Z,0
2018-05-07T00:08:06.442Z,0
2018-05-07T00:08:47.805Z,0
2018-05-07T00:09:28.289Z,0
2018-05-07T00:10:08.773Z,0
2018-05-07T00:10:51.870Z,0
2018-05-07T00:11:31.359Z,0
2018-05-07T00:12:12.314Z,0
2018-05-07T00:12:52.394Z,0
2018-05-07T00:13:34.478Z,0
2018-05-07T00:14:25.807Z,0
2018-05-07T00:15:06.815Z,0
2018-05-07T00:15:48.305Z,0
2018-05-07T00:16:29.807Z,0
2018-05-07T00:17:14.810Z,0
2018-05-07T00:17:56.898Z,0
2018-05-07T00:18:38.831Z,0
2018-05-07T00:19:18.411Z,0
2018-05-07T00:20:04.305Z,0
2018-05-07T00:20:45.031Z,0
2018-05-07T00:21:25.491Z,0
2018-05-07T00:22:07.907Z,0
2018-05-07T00:22:54.308Z,0
2018-05-07T00:23:39.461Z,0
2018-05-07T00:24:23.810Z,0
2018-05-07T00:25:06.266Z,0
2018-05-07T00:25:47.395Z,0
2018-05-07T00:26:30.412Z,0
2018-05-07T00:27:11.323Z,0
2018-05-07T00:27:51.377Z,0
2018-05-07T00:28:32.797Z,0
2018-05-07T00:29:13.291Z,0
2018-05-07T00:29:53.731Z,0
2018-05-07T00:30:34.912Z,0
2018-05-07T00:31:14.749Z,0
2018-05-07T00:31:55.241Z,0
2018-05-07T00:32:35.780Z,0
2018-05-07T00:33:16.360Z,0
2018-05-07T00:33:56.780Z,0
2018-05-07T00:34:37.275Z,0
2018-05-07T00:35:17.779Z,0
2018-05-07T00:35:58.962Z,0
2018-05-07T00:36:39.409Z,0
2018-05-07T00:37:19.886Z,0
2018-05-07T00:38:00.458Z,0
2018-05-07T00:38:40.956Z,0
2018-05-07T00:39:21.417Z,0
2018-05-07T00:40:01.908Z,0
2018-05-07T00:40:42.372Z,0
2018-05-07T00:41:22.909Z,0
2018-05-07T00:42:03.358Z,0
2018-05-07T00:42:43.888Z,0
2018-05-07T00:43:24.356Z,0
2018-05-07T00:44:04.905Z,0
2018-05-07T00:44:45.374Z,0
2018-05-07T00:45:25.878Z,0
2018-05-07T00:46:06.352Z,0
2018-05-07T00:46:46.873Z,0
2018-05-07T00:47:27.302Z,0
2018-05-07T00:48:07.884Z,0
2018-05-07T00:48:48.422Z,0
2018-05-07T00:49:28.932Z,0
2018-05-07T00:50:09.405Z,0
2018-05-07T00:50:49.916Z,0
2018-05-07T00:51:30.393Z,0
2018-05-07T00:52:10.878Z,0
2018-05-07T00:52:51.376Z,0
2018-05-07T00:53:31.830Z,0
2018-05-07T00:54:12.346Z,0
2018-05-07T00:54:52.843Z,0
2018-05-07T00:55:33.317Z,0
2018-05-07T00:56:13.900Z,0
2018-05-07T00:56:54.387Z,0
2018-05-07T00:57:34.967Z,0
2018-05-07T00:58:15.428Z,0
2018-05-07T00:58:55.856Z,0
2018-05-07T00:59:36.424Z,0
2018-05-07T01:00:16.899Z,0
2018-05-07T01:00:57.332Z,0
2018-05-07T01:01:37.833Z,0
2018-05-07T01:02:18.348Z,0
2018-05-07T01:02:58.856Z,0
2018-05-07T01:03:39.320Z,0
2018-05-07T01:04:19.815Z,0
2018-05-07T01:05:00.321Z,0
2018-05-07T01:05:40.872Z,0
2018-05-07T01:06:21.319Z,0
2018-05-07T01:07:01.816Z,0
2018-05-07T01:07:42.333Z,0
2018-05-07T01:08:22.775Z,0
2018-05-07T01:09:03.448Z,0
2018-05-07T01:09:43.893Z,0
2018-05-07T01:10:24.366Z,0
2018-05-07T01:11:04.827Z,0
2018-05-07T01:11:45.349Z,0
2018-05-07T01:12:25.816Z,0
2018-05-07T01:13:06.362Z,0
2018-05-07T01:13:46.809Z,0
2018-05-07T01:14:27.332Z,0
2018-05-07T01:15:07.796Z,0
2018-05-07T01:15:48.330Z,0
2018-05-07T01:16:28.820Z,0
2018-05-07T01:17:09.310Z,0
2018-05-07T01:17:49.855Z,0
2018-05-07T01:18:30.418Z,0
2018-05-07T01:19:10.874Z,0
2018-05-07T01:19:51.379Z,0
2018-05-07T01:20:31.860Z,0
2018-05-07T01:21:12.345Z,0
2018-05-07T01:21:52.815Z,0
2018-05-07T01:22:33.313Z,0
2018-05-07T01:23:13.819Z,0
2018-05-07T01:23:54.341Z,0
2018-05-07T01:24:34.908Z,0
2018-05-07T01:25:15.502Z,0
2018-05-07T01:25:55.924Z,0
2018-05-07T01:26:36.506Z,0
2018-05-07T01:27:16.969Z,0
2018-05-07T01:27:57.535Z,0
2018-05-07T01:28:37.985Z,0
2018-05-07T01:29:18.541Z,0
2018-05-07T01:29:59.000Z,0
2018-05-07T01:30:39.516Z,0
2018-05-07T01:31:20.074Z,0
2018-05-07T01:32:00.528Z,0
2018-05-07T01:32:40.989Z,0
2018-05-07T01:33:21.585Z,0
2018-05-07T01:34:01.980Z,0
2018-05-07T01:34:42.500Z,0
2018-05-07T01:35:23.050Z,0
2018-05-07T01:36:03.569Z,0
2018-05-07T01:36:44.075Z,0
2018-05-07T01:37:24.560Z,0
2018-05-07T01:38:05.062Z,0
2018-05-07T01:38:45.550Z,0
2018-05-07T01:39:26.052Z,0
2018-05-07T01:40:06.564Z,0
2018-05-07T01:40:47.013Z,0
2018-05-07T01:41:27.567Z,0
2018-05-07T01:42:08.012Z,0
2018-05-07T01:42:48.542Z,0
2018-05-07T01:43:29.029Z,0
2018-05-07T01:44:09.559Z,0
2018-05-07T01:44:50.063Z,0
2018-05-07T01:45:30.510Z,0
2018-05-07T01:46:11.011Z,0
2018-05-07T01:46:51.470Z,0
2018-05-07T01:47:31.938Z,0
2018-05-07T01:48:12.450Z,0
2018-05-07T01:48:52.962Z,0
2018-05-07T01:49:33.480Z,0
2018-05-07T01:50:13.974Z,0
2018-05-07T01:50:54.464Z,0
2018-05-07T01:51:34.917Z,0
2018-05-07T01:52:15.492Z,0
2018-05-07T01:52:56.018Z,0
2018-05-07T01:53:36.683Z,0
2018-05-07T01:54:17.128Z,0
2018-05-07T01:54:57.690Z,0
2018-05-07T01:55:38.121Z,0
2018-05-07T01:56:18.591Z,0
2018-05-07T01:56:59.135Z,0
2018-05-07T01:57:39.599Z,0
2018-05-07T01:58:20.155Z,0
2018-05-07T01:59:00.817Z,0
2018-05-07T01:59:41.199Z,0
2018-05-07T02:00:21.789Z,0
2018-05-07T02:01:02.290Z,0
2018-05-07T02:01:42.737Z,0
2018-05-07T02:02:23.258Z,0
2018-05-07T02:03:03.753Z,0
2018-05-07T02:03:44.218Z,0
2018-05-07T02:04:24.671Z,0
2018-05-07T02:05:05.242Z,0
2018-05-07T02:05:45.728Z,0
2018-05-07T02:06:26.219Z,0
2018-05-07T02:07:06.708Z,0
2018-05-07T02:07:47.226Z,0
2018-05-07T02:08:27.708Z,0
2018-05-07T02:09:08.236Z,0
2018-05-07T02:09:48.697Z,0
2018-05-07T02:10:29.175Z,0
2018-05-07T02:11:09.794Z,0
2018-05-07T02:11:50.392Z,0
2018-05-07T02:12:30.878Z,0
2018-05-07T02:13:11.380Z,0
2018-05-07T02:13:51.877Z,0
2018-05-07T02:14:32.401Z,0
2018-05-07T02:15:12.888Z,0
2018-05-07T02:15:53.385Z,0
2018-05-07T02:16:33.816Z,0
2018-05-07T02:17:14.313Z,0
2018-05-07T02:17:54.872Z,0
2018-05-07T02:18:35.353Z,0
2018-05-07T02:19:15.861Z,0
2018-05-07T02:19:56.463Z,0
2018-05-07T02:20:36.969Z,0
2018-05-07T02:21:17.481Z,0
2018-05-07T02:21:57.936Z,0
2018-05-07T02:22:38.486Z,0
2018-05-07T02:23:18.953Z,0
2018-05-07T02:23:59.424Z,0
2018-05-07T02:24:39.946Z,0
2018-05-07T02:25:20.437Z,0
2018-05-07T02:26:00.899Z,0
2018-05-07T02:26:41.379Z,0
2018-05-07T02:27:21.920Z,0
2018-05-07T02:28:02.371Z,0
2018-05-07T02:28:42.898Z,0
2018-05-07T02:29:23.335Z,0
2018-05-07T02:30:03.835Z,0
2018-05-07T02:30:44.275Z,0
2018-05-07T02:31:24.927Z,0
2018-05-07T02:32:05.229Z,0
2018-05-07T02:32:45.748Z,0
2018-05-07T02:33:26.232Z,0
2018-05-07T02:34:07.181Z,0
2018-05-07T02:34:47.668Z,0
2018-05-07T02:35:28.195Z,0
2018-05-07T02:36:08.643Z,0
2018-05-07T02:36:49.161Z,0
2018-05-07T02:37:29.596Z,0
2018-05-07T02:38:10.075Z,0
2018-05-07T02:38:50.554Z,0
2018-05-07T02:39:31.031Z,0
2018-05-07T02:40:11.545Z,0
2018-05-07T02:40:52.040Z,0
2018-05-07T02:41:32.603Z,0
2018-05-07T02:42:13.040Z,0
2018-05-07T02:42:53.500Z,0
2018-05-07T02:43:33.993Z,0
2018-05-07T02:44:14.500Z,0
2018-05-07T02:44:54.959Z,0
2018-05-07T02:45:35.468Z,0
2018-05-07T02:46:15.977Z,0
2018-05-07T02:46:56.461Z,0
2018-05-07T02:47:36.959Z,0
2018-05-07T02:48:17.448Z,0
2018-05-07T02:48:57.890Z,0
2018-05-07T02:49:38.346Z,0
2018-05-07T02:50:18.889Z,0
2018-05-07T02:50:59.332Z,0
2018-05-07T02:51:39.797Z,0
2018-05-07T02:52:20.299Z,0
2018-05-07T02:53:00.836Z,0
2018-05-07T02:53:41.276Z,0
2018-05-07T02:54:21.740Z,0
2018-05-07T02:55:02.194Z,0
2018-05-07T02:55:42.758Z,0
2018-05-07T02:56:23.303Z,0
2018-05-07T02:57:03.812Z,0
2018-05-07T02:57:44.313Z,0
2018-05-07T02:58:24.838Z,0
2018-05-07T02:59:05.316Z,0
2018-05-07T02:59:45.796Z,0
2018-05-07T03:00:26.292Z,0
2018-05-07T03:01:06.836Z,0
2018-05-07T03:01:47.341Z,0
2018-05-07T03:02:27.826Z,0
2018-05-07T03:03:08.262Z,0
2018-05-07T03:03:48.784Z,0
2018-05-07T03:04:29.232Z,0
2018-05-07T03:05:09.789Z,0
2018-05-07T03:05:50.241Z,0
2018-05-07T03:06:30.787Z,0
2018-05-07T03:07:11.229Z,0
2018-05-07T03:07:51.712Z,0
2018-05-07T03:08:32.199Z,0
2018-05-07T03:09:12.700Z,0
2018-05-07T03:09:53.180Z,0
2018-05-07T03:10:33.663Z,0
2018-05-07T03:11:14.139Z,0
2018-05-07T03:11:54.661Z,0
2018-05-07T03:12:35.138Z,0
2018-05-07T03:13:15.616Z,0
2018-05-07T03:13:56.121Z,0
2018-05-07T03:14:36.637Z,0
2018-05-07T03:15:17.066Z,0
2018-05-07T03:15:57.583Z,0
2018-05-07T03:16:38.094Z,0
2018-05-07T03:17:18.553Z,0
2018-05-07T03:17:59.052Z,4
2018-05-07T03:18:39.600Z,4
2018-05-07T03:19:20.091Z,0
2018-05-07T03:20:00.611Z,0
2018-05-07T03:20:41.075Z,0
2018-05-07T03:21:21.537Z,4
2018-05-07T03:22:02.437Z,4
2018-05-07T03:22:42.912Z,0
2018-05-07T03:23:23.398Z,4
2018-05-07T03:24:03.874Z,4
2018-05-07T03:24:44.446Z,4
2018-05-07T03:25:24.876Z,4
2018-05-07T03:26:05.323Z,4
2018-05-07T03:26:45.815Z,8
2018-05-07T03:27:26.350Z,4
2018-05-07T03:28:06.818Z,4
2018-05-07T03:28:47.316Z,8
2018-05-07T03:29:27.761Z,8
2018-05-07T03:30:08.297Z,8
2018-05-07T03:30:48.820Z,12
2018-05-07T03:31:29.322Z,12
2018-05-07T03:32:09.805Z,12
2018-05-07T03:32:50.316Z,16
2018-05-07T03:33:30.803Z,16
2018-05-07T03:34:11.281Z,16
2018-05-07T03:34:51.809Z,20
2018-05-07T03:35:32.265Z,20
2018-05-07T03:36:12.816Z,20
2018-05-07T03:36:53.401Z,28
2018-05-07T03:37:34.038Z,28
2018-05-07T03:38:14.518Z,32
2018-05-07T03:38:55.007Z,36
2018-05-07T03:39:35.547Z,36
2018-05-07T03:40:15.969Z,40
2018-05-07T03:40:56.515Z,48
2018-05-07T03:41:37.239Z,48
2018-05-07T03:42:17.772Z,52
2018-05-07T03:42:58.226Z,56
2018-05-07T03:43:38.698Z,60
2018-05-07T03:44:19.188Z,68
2018-05-07T03:44:59.762Z,72
2018-05-07T03:45:40.198Z,76
2018-05-07T03:46:20.705Z,84
2018-05-07T03:47:01.203Z,92
2018-05-07T03:47:41.688Z,100
2018-05-07T03:48:22.143Z,104
2018-05-07T03:49:02.643Z,112
2018-05-07T03:49:43.119Z,120
2018-05-07T03:50:23.653Z,128
2018-05-07T03:51:04.134Z,136
2018-05-07T03:51:44.744Z,144
2018-05-07T03:52:25.236Z,156
2018-05-07T03:53:05.770Z,164
2018-05-07T03:53:46.262Z,172
2018-05-07T03:54:26.703Z,184
2018-05-07T03:55:07.188Z,196
2018-05-07T03:55:48.083Z,208
2018-05-07T03:56:28.569Z,220
2018-05-07T03:57:09.053Z,232
2018-05-07T03:57:49.550Z,244
2018-05-07T03:58:30.017Z,256
2018-05-07T03:59:10.543Z,272
2018-05-07T03:59:51.075Z,284
2018-05-07T04:00:31.578Z,300
2018-05-07T04:01:12.070Z,312
2018-05-07T04:01:53.103Z,328
2018-05-07T04:02:33.648Z,344
2018-05-07T04:03:14.106Z,360
2018-05-07T04:03:54.610Z,376
2018-05-07T04:04:35.071Z,392
2018-05-07T04:05:15.590Z,408
2018-05-07T04:05:56.097Z,428
2018-05-07T04:06:36.604Z,444
2018-05-07T04:07:17.159Z,464
2018-05-07T04:07:57.544Z,480
2018-05-07T04:08:38.006Z,504
2018-05-07T04:09:18.538Z,520
2018-05-07T04:09:58.999Z,540
2018-05-07T04:10:39.534Z,556
2018-05-07T04:11:20.065Z,576
2018-05-07T04:12:00.550Z,600
2018-05-07T04:12:41.028Z,620
2018-05-07T04:13:21.579Z,640
2018-05-07T04:14:02.012Z,660
2018-05-07T04:14:42.454Z,680
2018-05-07T04:15:23.006Z,700
2018-05-07T04:16:03.461Z,724
2018-05-07T04:16:43.924Z,740
2018-05-07T04:17:24.549Z,764
2018-05-07T04:18:05.023Z,784
2018-05-07T04:18:45.484Z,804
2018-05-07T04:19:26.010Z,828
2018-05-07T04:20:06.489Z,848
2018-05-07T04:20:47.022Z,868
2018-05-07T04:21:27.537Z,888
2018-05-07T04:22:08.126Z,912
2018-05-07T04:22:48.649Z,936
2018-05-07T04:23:29.140Z,956
2018-05-07T04:24:09.607Z,976
2018-05-07T04:24:50.114Z,996
2018-05-07T04:25:30.640Z,1016
2018-05-07T04:26:11.091Z,1036
2018-05-07T04:26:51.591Z,1060
2018-05-07T04:27:32.077Z,1080
2018-05-07T04:28:12.538Z,1100
2018-05-07T04:28:53.087Z,1124
2018-05-07T04:29:33.561Z,1144
2018-05-07T04:30:14.003Z,1160
2018-05-07T04:30:54.541Z,1184
2018-05-07T04:31:35.037Z,1204
2018-05-07T04:32:15.521Z,1220
2018-05-07T04:32:56.084Z,1244
2018-05-07T04:33:36.669Z,1264
2018-05-07T04:34:17.178Z,1280
2018-05-07T04:34:57.659Z,1300
2018-05-07T04:35:38.149Z,1320
2018-05-07T04:36:18.576Z,1336
2018-05-07T04:36:59.095Z,1356
2018-05-07T04:37:39.593Z,1376
2018-05-07T04:38:20.181Z,1404
2018-05-07T04:39:00.670Z,1424
2018-05-07T04:39:41.201Z,1444
2018-05-07T04:40:21.718Z,1464
2018-05-07T04:41:02.238Z,1488
2018-05-07T04:41:42.838Z,1516
2018-05-07T04:42:23.699Z,1552
2018-05-07T04:43:04.204Z,1532
2018-05-07T04:43:44.707Z,1572
2018-05-07T04:44:25.159Z,1588
2018-05-07T04:45:05.690Z,1600
2018-05-07T04:45:46.185Z,1608
2018-05-07T04:46:26.675Z,1616
2018-05-07T04:47:07.141Z,1628
2018-05-07T04:47:47.713Z,1676
2018-05-07T04:48:28.136Z,1752
2018-05-07T04:49:08.663Z,1816
2018-05-07T04:49:49.124Z,1728
2018-05-07T04:50:29.649Z,1712
2018-05-07T04:51:10.129Z,1716
2018-05-07T04:51:50.640Z,1732
2018-05-07T04:52:31.142Z,1740
2018-05-07T04:53:11.622Z,1752
2018-05-07T04:53:52.266Z,1764
2018-05-07T04:54:32.696Z,1784
2018-05-07T04:55:13.299Z,1792
2018-05-07T04:55:53.703Z,1800
2018-05-07T04:56:34.259Z,1816
2018-05-07T04:57:14.744Z,1848
2018-05-07T04:57:55.233Z,1880
2018-05-07T04:58:35.714Z,1888
2018-05-07T04:59:16.214Z,1904
2018-05-07T04:59:56.740Z,1924
2018-05-07T05:00:37.337Z,1952
2018-05-07T05:01:17.805Z,1964
2018-05-07T05:01:58.255Z,1932
2018-05-07T05:02:38.785Z,1932
2018-05-07T05:03:19.259Z,1944
2018-05-07T05:03:59.721Z,1952
2018-05-07T05:04:40.256Z,1984
2018-05-07T05:05:20.735Z,2020
2018-05-07T05:06:01.176Z,2056
2018-05-07T05:06:41.770Z,2052
2018-05-07T05:07:22.159Z,2016
2018-05-07T05:08:02.655Z,2012
2018-05-07T05:08:43.152Z,2024
2018-05-07T05:09:23.600Z,2024
2018-05-07T05:10:04.127Z,2028
2018-05-07T05:10:44.683Z,2020
2018-05-07T05:11:25.109Z,2036
2018-05-07T05:12:05.612Z,2052
2018-05-07T05:12:46.095Z,2072
2018-05-07T05:13:26.629Z,2080
2018-05-07T05:14:07.105Z,2088
2018-05-07T05:14:48.275Z,2088
2018-05-07T05:15:28.682Z,2096
2018-05-07T05:16:09.168Z,2096
2018-05-07T05:16:49.696Z,2104
2018-05-07T05:17:30.173Z,2108
2018-05-07T05:18:10.653Z,2116
2018-05-07T05:18:51.164Z,2124
2018-05-07T05:19:31.637Z,2132
2018-05-07T05:20:12.113Z,2140
2018-05-07T05:20:52.670Z,2152
2018-05-07T05:21:33.226Z,2156
2018-05-07T05:22:13.662Z,2168
2018-05-07T05:22:54.200Z,2172
2018-05-07T05:23:34.703Z,2172
2018-05-07T05:24:15.151Z,2180
2018-05-07T05:24:55.642Z,2192
2018-05-07T05:25:36.177Z,2192
2018-05-07T05:26:16.753Z,2212
2018-05-07T05:26:57.166Z,2220
2018-05-07T05:27:37.609Z,2228
2018-05-07T05:28:18.189Z,2232
2018-05-07T05:28:58.755Z,2236
2018-05-07T05:29:39.169Z,2244
2018-05-07T05:30:19.715Z,2256
2018-05-07T05:31:00.182Z,2260
2018-05-07T05:31:40.647Z,2268
2018-05-07T05:32:21.177Z,2272
2018-05-07T05:33:01.694Z,2292
2018-05-07T05:33:42.143Z,2300
2018-05-07T05:34:22.610Z,2316
2018-05-07T05:35:03.098Z,2340
2018-05-07T05:35:43.645Z,2368
2018-05-07T05:36:24.111Z,2388
2018-05-07T05:37:04.650Z,2408
2018-05-07T05:37:45.102Z,2428
2018-05-07T05:38:25.600Z,2460
2018-05-07T05:39:06.260Z,2528
2018-05-07T05:39:46.784Z,2724
2018-05-07T05:40:27.261Z,3140
2018-05-07T05:41:07.931Z,3736
2018-05-07T05:41:48.557Z,4220
2018-05-07T05:42:29.059Z,4632
2018-05-07T05:43:09.568Z,5388
2018-05-07T05:43:50.066Z,5864
2018-05-07T05:44:30.548Z,6044
2018-05-07T05:45:11.011Z,6240
2018-05-07T05:45:51.519Z,6264
2018-05-07T05:46:32.012Z,6188
2018-05-07T05:47:12.524Z,6072
2018-05-07T05:47:53.015Z,5884
2018-05-07T05:48:33.467Z,5692
2018-05-07T05:49:14.060Z,5476
2018-05-07T05:49:54.512Z,5272
2018-05-07T05:50:34.998Z,5068
2018-05-07T05:51:15.483Z,4840
2018-05-07T05:51:56.086Z,4680
2018-05-07T05:52:36.616Z,4588
2018-05-07T05:53:17.136Z,4544
2018-05-07T05:53:57.614Z,4556
2018-05-07T05:54:38.101Z,4584
2018-05-07T05:55:18.599Z,4604
2018-05-07T05:55:59.070Z,4584
2018-05-07T05:56:39.551Z,4700
2018-05-07T05:57:20.104Z,4792
2018-05-07T05:58:00.581Z,4904
2018-05-07T05:58:41.159Z,5016
2018-05-07T05:59:21.646Z,5176
2018-05-07T06:00:02.201Z,5320
2018-05-07T06:00:42.698Z,5400
2018-05-07T06:01:23.233Z,5504
2018-05-07T06:02:03.732Z,5552
2018-05-07T06:02:44.247Z,5656
2018-05-07T06:03:24.773Z,5708
2018-05-07T06:04:05.336Z,5788
2018-05-07T06:04:45.798Z,5828
2018-05-07T06:05:26.304Z,5852
2018-05-07T06:06:06.812Z,5840
2018-05-07T06:06:47.413Z,5812
2018-05-07T06:07:27.955Z,5756
2018-05-07T06:08:08.452Z,5668
2018-05-07T06:08:48.938Z,5572
2018-05-07T06:09:29.489Z,5396
2018-05-07T06:10:09.929Z,5188
2018-05-07T06:10:50.496Z,4968
2018-05-07T06:11:30.966Z,4848
2018-05-07T06:12:11.459Z,4660
2018-05-07T06:12:51.958Z,4456
2018-05-07T06:13:32.451Z,4280
2018-05-07T06:14:13.009Z,4092
2018-05-07T06:14:53.585Z,3960
2018-05-07T06:15:34.042Z,3820
2018-05-07T06:16:14.492Z,3716
2018-05-07T06:16:54.978Z,3620
2018-05-07T06:17:35.682Z,3576
2018-05-07T06:18:16.203Z,3544
2018-05-07T06:18:56.654Z,3552
2018-05-07T06:19:37.199Z,3544
2018-05-07T06:20:17.663Z,3528
2018-05-07T06:20:58.171Z,3456
2018-05-07T06:21:38.637Z,3436
2018-05-07T06:22:19.098Z,3388
2018-05-07T06:22:59.667Z,3344
2018-05-07T06:23:40.116Z,3320
2018-05-07T06:24:20.593Z,3308
2018-05-07T06:25:01.200Z,3284
2018-05-07T06:25:41.661Z,3288
2018-05-07T06:26:22.140Z,3272
2018-05-07T06:27:02.706Z,3268
2018-05-07T06:27:43.192Z,3268
2018-05-07T06:28:23.670Z,3232
2018-05-07T06:29:04.130Z,3192
2018-05-07T06:29:44.603Z,3148
2018-05-07T06:30:25.115Z,3148
2018-05-07T06:31:05.627Z,3140
2018-05-07T06:31:46.088Z,3192
2018-05-07T06:32:26.652Z,3152
2018-05-07T06:33:07.104Z,3160
2018-05-07T06:33:47.592Z,3168
2018-05-07T06:34:28.292Z,3204
2018-05-07T06:35:08.740Z,3272
2018-05-07T06:35:49.289Z,3392
2018-05-07T06:36:29.774Z,3536
2018-05-07T06:37:10.246Z,3692
2018-05-07T06:37:50.963Z,3920
2018-05-07T06:38:31.413Z,4124
2018-05-07T06:39:11.942Z,4316
2018-05-07T06:39:52.456Z,4544
2018-05-07T06:40:32.966Z,4716
2018-05-07T06:41:13.419Z,4900
2018-05-07T06:41:53.875Z,5084
2018-05-07T06:42:34.382Z,5296
2018-05-07T06:43:14.837Z,5396
2018-05-07T06:43:55.365Z,5536
2018-05-07T06:44:35.842Z,5664
2018-05-07T06:45:16.343Z,5760
2018-05-07T06:45:56.925Z,5820
2018-05-07T06:46:37.337Z,5880
2018-05-07T06:47:17.815Z,5872
2018-05-07T06:47:58.354Z,5880
2018-05-07T06:48:38.859Z,5884
2018-05-07T06:49:19.382Z,5888
2018-05-07T06:50:00.079Z,5892
2018-05-07T06:50:40.493Z,5908
2018-05-07T06:51:21.009Z,5908
2018-05-07T06:52:01.640Z,5924
2018-05-07T06:52:42.060Z,5928
2018-05-07T06:53:22.560Z,5936
2018-05-07T06:54:03.117Z,5948
2018-05-07T06:54:43.508Z,5956
2018-05-07T06:55:24.014Z,5968
2018-05-07T06:56:04.601Z,5972
2018-05-07T06:56:45.110Z,5980
2018-05-07T06:57:25.573Z,5984
2018-05-07T06:58:06.081Z,5976
2018-05-07T06:58:46.568Z,5976
2018-05-07T06:59:27.014Z,5980
2018-05-07T07:00:07.612Z,5972
2018-05-07T07:00:48.096Z,5964
2018-05-07T07:01:28.572Z,5960
2018-05-07T07:02:09.117Z,5952
2018-05-07T07:02:49.860Z,5956
2018-05-07T07:03:30.120Z,5948
2018-05-07T07:04:10.563Z,5944
2018-05-07T07:04:51.107Z,5944
2018-05-07T07:05:31.580Z,5924
2018-05-07T07:06:12.122Z,5920
2018-05-07T07:06:52.673Z,5908
2018-05-07T07:07:33.223Z,5904
2018-05-07T07:08:13.683Z,5904
2018-05-07T07:08:54.274Z,5892
2018-05-07T07:09:34.707Z,5876
2018-05-07T07:10:15.226Z,5860
2018-05-07T07:10:55.779Z,5856
2018-05-07T07:11:36.255Z,5852
2018-05-07T07:12:16.783Z,5836
2018-05-07T07:12:57.273Z,5824
2018-05-07T07:13:37.789Z,5812
2018-05-07T07:14:18.257Z,5800
2018-05-07T07:14:58.769Z,5800
2018-05-07T07:15:39.271Z,5796
2018-05-07T07:16:19.749Z,5788
2018-05-07T07:17:00.270Z,5776
2018-05-07T07:17:40.694Z,5768
2018-05-07T07:18:21.202Z,5760
2018-05-07T07:19:01.752Z,5748
2018-05-07T07:19:42.272Z,5740
2018-05-07T07:20:22.704Z,5728
2018-05-07T07:21:03.190Z,5712
2018-05-07T07:21:43.860Z,5696
2018-05-07T07:22:24.266Z,5672
2018-05-07T07:23:04.731Z,5656
2018-05-07T07:23:45.202Z,5632
2018-05-07T07:24:25.706Z,5632
2018-05-07T07:25:06.189Z,5612
2018-05-07T07:25:46.740Z,5592
2018-05-07T07:26:27.292Z,5572
2018-05-07T07:27:07.678Z,5556
2018-05-07T07:27:48.205Z,5532
2018-05-07T07:28:28.715Z,5524
2018-05-07T07:29:09.241Z,5496
2018-05-07T07:29:49.891Z,5472
2018-05-07T07:30:30.375Z,5444
2018-05-07T07:31:10.846Z,5428
2018-05-07T07:31:51.458Z,5408
2018-05-07T07:32:31.972Z,5388
2018-05-07T07:33:12.604Z,5360
2018-05-07T07:33:53.310Z,5348
2018-05-07T07:34:33.687Z,5332
2018-05-07T07:35:14.214Z,5308
2018-05-07T07:35:54.885Z,5284
2018-05-07T07:36:35.338Z,5256
2018-05-07T07:37:15.864Z,5232
2018-05-07T07:37:56.318Z,5204
2018-05-07T07:38:36.811Z,5180
2018-05-07T07:39:17.335Z,5156
2018-05-07T07:39:57.867Z,5132
2018-05-07T07:40:38.363Z,5108
2018-05-07T07:41:18.885Z,5072
2018-05-07T07:41:59.386Z,5048
2018-05-07T07:42:39.845Z,5016
2018-05-07T07:43:20.396Z,4988
2018-05-07T07:44:00.939Z,4968
2018-05-07T07:44:41.433Z,4928
2018-05-07T07:45:21.974Z,4900
2018-05-07T07:46:02.449Z,4876
2018-05-07T07:46:42.887Z,4844
2018-05-07T07:47:24.051Z,4824
2018-05-07T07:48:03.956Z,4792
2018-05-07T07:48:44.434Z,4756
2018-05-07T07:49:24.945Z,4732
2018-05-07T07:50:05.409Z,4708
2018-05-07T07:50:45.889Z,4680
2018-05-07T07:51:26.377Z,4644
2018-05-07T07:52:06.888Z,4616
2018-05-07T07:52:47.397Z,4592
2018-05-07T07:53:27.989Z,4560
2018-05-07T07:54:08.435Z,4528
2018-05-07T07:54:48.862Z,4500
2018-05-07T07:55:29.435Z,4464
2018-05-07T07:56:09.938Z,4444
2018-05-07T07:56:50.390Z,4416
2018-05-07T07:57:30.907Z,4392
2018-05-07T07:58:11.456Z,4356
2018-05-07T07:58:51.900Z,4328
2018-05-07T07:59:32.442Z,4292
2018-05-07T08:00:12.903Z,4272
2018-05-07T08:00:53.416Z,4236
2018-05-07T08:01:33.916Z,4208
2018-05-07T08:02:14.401Z,4188
2018-05-07T08:02:54.866Z,4168
2018-05-07T08:03:35.689Z,4132
2018-05-07T08:04:16.296Z,4108
2018-05-07T08:04:56.650Z,4084
2018-05-07T08:05:37.196Z,4052
2018-05-07T08:06:17.671Z,4008
2018-05-07T08:06:58.155Z,3920
2018-05-07T08:07:38.707Z,3796
2018-05-07T08:08:19.126Z,3652
2018-05-07T08:08:59.638Z,3520
2018-05-07T08:09:40.125Z,3416
2018-05-07T08:10:20.617Z,3336
2018-05-07T08:11:01.073Z,3288
2018-05-07T08:11:41.570Z,3264
2018-05-07T08:12:22.358Z,3248
2018-05-07T08:13:02.517Z,3240
2018-05-07T08:13:43.091Z,3232
2018-05-07T08:14:23.570Z,3216
2018-05-07T08:15:04.289Z,3204
2018-05-07T08:15:44.840Z,3200
2018-05-07T08:16:25.380Z,3184
2018-05-07T08:17:05.887Z,3176
2018-05-07T08:17:46.399Z,3160
2018-05-07T08:18:26.959Z,3148
2018-05-07T08:19:07.397Z,3132
2018-05-07T08:19:47.924Z,3116
2018-05-07T08:20:28.392Z,3100
2018-05-07T08:21:08.835Z,3092
2018-05-07T08:21:49.345Z,3076
2018-05-07T08:22:29.834Z,3056
2018-05-07T08:23:10.375Z,3040
2018-05-07T08:23:50.743Z,3024
2018-05-07T08:24:31.332Z,3012
2018-05-07T08:25:11.787Z,2984
2018-05-07T08:25:52.261Z,2980
2018-05-07T08:26:32.767Z,2956
2018-05-07T08:27:13.261Z,2948
2018-05-07T08:27:53.751Z,2928
2018-05-07T08:28:34.193Z,2908
2018-05-07T08:29:14.704Z,2892
2018-05-07T08:29:55.273Z,2876
2018-05-07T08:30:35.882Z,2856
2018-05-07T08:31:16.340Z,2844
2018-05-07T08:31:56.875Z,2828
2018-05-07T08:32:37.338Z,2820
2018-05-07T08:33:17.880Z,2804
2018-05-07T08:33:58.350Z,2784
2018-05-07T08:34:38.791Z,2776
2018-05-07T08:35:19.291Z,2772
2018-05-07T08:35:59.807Z,2764
2018-05-07T08:36:40.261Z,2756
2018-05-07T08:37:20.809Z,2756
2018-05-07T08:38:01.251Z,2748
2018-05-07T08:38:41.765Z,2744
2018-05-07T08:39:22.252Z,2732
2018-05-07T08:40:02.753Z,2728
2018-05-07T08:40:43.235Z,2728
2018-05-07T08:41:23.767Z,2720
2018-05-07T08:42:04.267Z,2708
2018-05-07T08:42:44.769Z,2704
2018-05-07T08:43:25.345Z,2700
2018-05-07T08:44:05.775Z,2692
2018-05-07T08:44:46.229Z,2688
2018-05-07T08:45:26.753Z,2684
2018-05-07T08:46:07.262Z,2680
2018-05-07T08:46:47.879Z,2672
2018-05-07T08:47:28.269Z,2668
2018-05-07T08:48:08.813Z,2660
2018-05-07T08:50:27.132Z,2652
2018-05-07T08:51:07.702Z,2644
2018-05-07T08:51:48.174Z,2640
2018-05-07T08:52:28.693Z,2640
2018-05-07T08:53:09.312Z,2632
2018-05-07T08:53:49.701Z,2632
2018-05-07T08:54:30.222Z,2624
2018-05-07T08:55:10.761Z,2616
2018-05-07T08:55:51.203Z,2616
2018-05-07T08:56:31.801Z,2608
2018-05-07T08:57:12.315Z,2608
2018-05-07T08:57:52.909Z,2604
2018-05-07T08:58:33.604Z,2608
2018-05-07T08:59:14.566Z,2604
2018-05-07T08:59:55.154Z,2600
2018-05-07T09:00:35.606Z,2600
2018-05-07T09:01:16.171Z,2584
2018-05-07T09:01:56.758Z,2584
2018-05-07T09:02:37.223Z,2584
2018-05-07T09:03:17.826Z,2580
2018-05-07T09:03:58.573Z,2584
2018-05-07T09:04:39.181Z,2580
2018-05-07T09:05:19.697Z,2576
2018-05-07T09:06:00.215Z,2576
2018-05-07T09:06:40.665Z,2576
2018-05-07T09:07:21.182Z,2572
2018-05-07T09:08:01.785Z,2576
2018-05-07T09:08:42.199Z,2576
2018-05-07T09:09:22.637Z,2572
2018-05-07T09:10:03.353Z,2576
2018-05-07T09:10:43.921Z,2568
2018-05-07T09:11:24.455Z,2572
2018-05-07T09:12:05.035Z,2572
2018-05-07T09:12:45.799Z,2568
2018-05-07T09:13:26.279Z,2568
2018-05-07T09:14:07.069Z,2568
2018-05-07T09:14:47.700Z,2572
2018-05-07T09:15:28.082Z,2568
2018-05-07T09:16:08.583Z,2564
2018-05-07T09:16:49.028Z,2564
2018-05-07T09:17:29.542Z,2564
2018-05-07T09:18:09.993Z,2564
2018-05-07T09:18:50.482Z,2560
2018-05-07T09:19:31.406Z,2564
2018-05-07T09:20:12.020Z,2564
2018-05-07T09:20:52.649Z,2560
2018-05-07T09:21:33.247Z,2564
2018-05-07T09:22:14.481Z,2568
2018-05-07T09:22:55.011Z,2564
2018-05-07T09:23:35.901Z,2568
2018-05-07T09:24:16.382Z,2568
2018-05-07T09:24:57.634Z,2568
2018-05-07T09:25:37.789Z,2564